Delta, Utah Weather observations

Data are for observation ending at time listed.
 Day   Time    Ave.   Ave.  Ave.  Vector   Max.   Stn.    Total    Solar   Ave.  
  of    of     Air    Rel.  Wind   Wind    Wind   Baro.  Precip.   Rad.    Soil  
Year   Day     Temp.  Hum.  Speed  Dir.    Gust   Pres.                    Temp. 
2016   (MST)    F      %     mph   deg.    mph     mb.     in.     W/m2     F   
------------------------------------------------------------------------------
 205    3:30   70.5    22    2.7   348      6.1   861.1    0.00       0    83.4
 205    3:40   69.9    22    2.8   347      5.4   861.2    0.00       0    83.3
 205    3:50   69.9    23    3.4   342      6.3   861.2    0.00       0    83.2
 205    4:00   69.6    24    3.1   353      6.0   861.2    0.00       0    83.2
 205    4:10   68.7    25    3.0   346      6.9   861.4    0.00       0    83.1
 205    4:20   68.1    26    2.7   345      5.6   861.4    0.00       0    83.0
 205    4:30   69.1    25    3.2   338      6.9   861.5    0.00       0    82.8
 205    4:40   69.6    24    3.3   352      6.8   861.5    0.00       0    82.8
 205    4:50   68.8    25    2.5   348      5.1   861.6    0.00       0    82.7
 205    5:00   68.2    26    3.0   347      5.9   861.7    0.00       0    82.7
 205    5:10   67.9    26    3.2   343      7.5   861.9    0.00       0    82.5
 205    5:20   67.3    27    2.5   352      4.8   862.0    0.00       0    82.3
 205    5:30   66.2    30    1.3   112      2.6   862.1    0.00       2    82.3
 205    5:40   65.4    29    1.4    38      4.5   862.2    0.00       7    82.2
 205    5:50   65.5    30    0.4   112      2.0   862.4    0.00      13    82.1
 205    6:00   66.0    29    0.6   346      2.6   862.5    0.00      20    82.0
 205    6:10   66.9    27    1.6    45      4.1   862.6    0.00      30    82.0
 205    6:20   68.2    26    1.4    38      3.9   862.7    0.00      87    81.9
 205    6:30   69.8    25    1.4    36      3.7   862.8    0.00     123    81.8
 205    6:40   71.0    24    1.5    17      3.7   862.8    0.00     152    81.8
 205    6:50   71.8    24    1.2    12      4.2   863.0    0.00     181    81.6
 205    7:00   71.9    28    0.7   216      1.7   863.1    0.00     213    81.5
 205    7:10   72.4    28    0.6   307      2.2   863.2    0.00     243    81.5
 205    7:20   72.9    25    3.0     4      7.2   863.3    0.00     272    81.4
 205    7:30   73.6    23    2.9   346      5.8   863.4    0.00     302    81.3
 205    7:40   74.5    22    3.2   357      8.0   863.5    0.00     327    81.3
 205    7:50   75.1    23    3.2   343      5.9   863.5    0.00     356    81.3
 205    8:00   75.2    22    4.2   343      8.1   863.5    0.00     384    81.3
 205    8:10   76.1    22    3.5   346      7.6   863.5    0.00     412    81.3
 205    8:20   76.9    22    2.6   342      7.0   863.5    0.00     438    81.2
 205    8:30   77.6    22    2.5   316      4.5   863.6    0.00     464    81.2
 205    8:40   77.9    22    3.0   346      6.9   863.6    0.00     491    81.2
 205    8:50   78.7    22    2.6   326      6.5   863.6    0.00     517    81.2
 205    9:00   79.7    21    2.2   306      5.6   863.5    0.00     542    81.2
 205    9:10   80.0    20    2.0   293      4.7   863.4    0.00     566    81.2
 205    9:20   80.9    18    1.6   324      4.2   863.4    0.00     588    81.2
 205    9:30   81.7    19    1.1   307      3.1   863.4    0.00     605    81.3
 205    9:40   81.7    18    1.6   296      4.3   863.4    0.00     626    81.3
 205    9:50   82.1    19    1.5   294      5.0   863.4    0.00     645    81.4
 205   10:00   82.3    18    1.9   315      5.3   863.4    0.00     661    81.5
 205   10:10   82.5    18    2.5   335      5.2   863.3    0.00     677    81.6
 205   10:20   83.1    18    2.1   330      5.1   863.2    0.00     694    81.7
 205   10:30   84.0    18    1.7   317      5.3   863.1    0.00     695    81.8
 205   10:40   84.3    18    2.5   325      5.6   863.1    0.00     707    82.0
 205   10:50   84.6    17    2.4   337      5.7   863.0    0.00     724    82.2
 205   11:00   85.4    18    1.3   310      4.4   862.9    0.00     747    82.3
 205   11:10   86.4    16    2.5   327      5.9   862.8    0.00     762    82.5
 205   11:20   86.2    16    2.8   311      8.0   862.7    0.00     773    82.7
 205   11:30   85.9    16    2.9   304      6.2   862.5    0.00     779    82.7
 205   11:40   86.7    14    2.9   316      5.6   862.4    0.00     790    83.1
 205   11:50   87.5    13    3.0   315      7.2   862.2    0.00     799    83.3
 205   12:00   87.7    13    3.3   333      6.9   862.2    0.00     803    83.5
 205   12:10   87.7    14    2.5   284      6.2   862.1    0.00     807    83.7
 205   12:20   88.2    13    2.5   282      6.1   862.0    0.00     811    84.0
 205   12:30   88.5    13    2.8   282      6.5   861.9    0.00     812    84.2
 205   12:40   89.2    12    3.0   284      6.1   861.8    0.00     812    84.3
 205   12:50   89.4    12    2.6   280      6.1   861.6    0.00     812    84.6
 205   13:00   89.4    11    3.0   301      7.7   861.5    0.00     812    84.7
 205   13:10   90.0    11    2.9   320      6.5   861.4    0.00     812    85.0
 205   13:20   90.5    11    2.7   302      7.4   861.3    0.00     806    85.2
 205   13:30   90.8    10    3.2   323      7.4   861.1    0.00     798    85.3
 205   13:40   91.4    10    2.0   290      4.5   861.0    0.00     789    85.6
 205   13:50   91.7    10    2.3   281      6.1   860.9    0.00     782    85.8
 205   14:00   91.9    11    2.3   294      5.9   860.8    0.00     770    86.0
 205   14:10   92.1    11    2.6   302      6.9   860.7    0.00     760    86.2
 205   14:20   92.1    11    2.6   272      7.4   860.6    0.00     749    86.4
 205   14:30   91.6    11    2.4   266      6.4   860.4    0.00     734    86.5
 205   14:40   92.7    11    1.5   294      4.5   860.3    0.00     717    86.6
 205   14:50   92.6    12    1.0   236      2.7   860.2    0.00     701    86.8
 205   15:00   93.4    12    1.5   227      5.3   860.1    0.00     351    87.0
 205   15:10   92.7    12    1.6   227      4.5   860.0    0.00      54    87.1
 205   15:20   92.7    11    1.9   289      5.2   859.9    0.00     231    87.3
 205   15:30   93.1    10    2.5   308      5.6   859.8    0.00     550    87.5
 205   15:40   93.6    10    1.5   288      5.4   859.6    0.00     540    87.6
 205   15:50   93.6    10    2.9   344      7.7   859.4    0.00     416    87.7
 205   16:00   93.2    10    1.6     1      4.7   859.3    0.00     550    88.0
 205   16:10   93.7    10    2.0   316      5.8   859.1    0.00     545    88.0
 205   16:20   93.2    10    2.3   321      4.7   859.0    0.00     517    88.2
 205   16:30   93.1    10    2.5   322      7.1   858.9    0.00     308    88.4
 205   16:40   93.0     9    2.2   296      4.7   858.8    0.00     190    88.4
 205   16:50   93.1    11    1.3   304      3.5   858.7    0.00     147    88.5
 205   17:00   93.5    10    2.0   337      4.9   858.6    0.00     417    88.5
 205   17:10   93.2    11    1.6    62      3.0   858.5    0.00     389    88.6
 205   17:20   93.1    10    2.0     4      4.4   858.4    0.00     209    88.6
 205   17:30   93.7    10    1.0   340      3.3   858.3    0.00     269    88.7
 205   17:40   93.8    11    0.7     4      2.8   858.2    0.00      71    88.7
 205   17:50   93.8    10    2.0   354      6.1   858.0    0.00      32    88.8
 205   18:00   93.6    10    2.7     4      5.3   857.9    0.00     147    88.8
 205   18:10   93.7    10    1.6   299      2.8   857.8    0.00     228    88.8
 205   18:20   94.2    10    1.3   323      4.9   857.7    0.00     202    88.7
 205   18:30   93.7    12    1.2   340      2.7   857.7    0.00     150    88.6
 205   18:40   94.2    11    1.1   320      3.3   857.7    0.00      35    88.6
 205   18:50   93.8    12    1.0   321      2.6   857.7    0.00      26    88.7
 205   19:00   93.5    13    0.5   330      2.8   857.6    0.00      41    88.6
 205   19:10   91.5    13    0.9   348      4.5   857.6    0.00      63    88.6
 205   19:20   89.3    13    2.4   347      5.0   857.6    0.00      17    88.7
 205   19:30   88.5    13    1.9   358      5.4   857.6    0.00      12    88.7
 205   19:40   87.7    13    1.7   337      3.2   857.6    0.00       8    88.7
 205   19:50   86.9    13    2.1   345      4.4   857.7    0.00       6    88.6
 205   20:00   86.0    13    2.2   353      5.0   857.7    0.00       1    88.6
 205   20:10   85.4    13    1.6   354      4.6   857.8    0.00       0    88.5
 205   20:20   85.1    12    2.0   350      4.4   857.9    0.00       0    88.5
 205   20:30   84.7    13    2.0   345      5.0   858.0    0.00       0    88.3
 205   20:40   83.6    13    3.7   346      9.1   858.2    0.00       0    88.1
 205   20:50   82.5    13    3.7   350      7.2   858.3    0.00       0    87.9
 205   21:00   83.5    13    3.4    14     12.5   858.4    0.00       0    87.9
 205   21:10   83.6    13    4.4    22     10.4   858.5    0.00       0    87.8
 205   21:20   83.2    13    5.4    28     12.9   858.6    0.00       0    87.6
 205   21:30   82.7    12    5.8    28     12.7   858.7    0.00       0    87.4
 205   21:40   82.1    13    5.2    26     12.2   858.7    0.00       0    87.4
 205   21:50   81.4    13    4.2    34     11.2   858.8    0.00       0    87.2
 205   22:00   81.2    13    5.9    27     11.0   858.8    0.00       0    87.1
 205   22:10   80.3    14    5.0    17     10.5   859.0    0.00       0    86.9
 205   22:20   79.3    14    4.8    19      9.1   859.0    0.00       0    86.8
 205   22:30   78.7    14    4.8     4      9.7   858.9    0.00       0    86.1
 205   22:40   78.3    14    4.3   355      9.6   859.0    0.00       0    86.1
 205   22:50   77.6    15    3.7   356      7.7   859.0    0.00       0    85.8
 205   23:00   77.4    16    4.1     9      9.1   859.0    0.00       0    85.4
 205   23:10   77.9    15    4.7    23     11.4   859.0    0.00       0    85.0
 205   23:20   77.8    15    3.5   360      7.7   859.1    0.00       0    84.6
 205   23:30   75.5    18    2.9   348      7.2   859.3    0.00       0    84.3
 205   23:40   74.6    18    3.3   338      6.5   859.4    0.00       0    83.8
 205   23:50   73.2    19    3.1   342      5.9   859.4    0.00       0    83.6
 206    0:00   72.9    18    2.8   348      6.6   859.5    0.00       0    83.1
 206    0:10   72.4    19    2.7   340      5.6   859.5    0.00       0    82.9
 206    0:20   71.2    20    3.4   336      6.6   859.6    0.00       0    82.5
 206    0:30   70.6    21    3.3   338      5.8   859.7    0.00       0    82.3
 206    0:40   70.5    21    3.3   335      5.6   859.7    0.00       0    82.0
 206    0:50   70.1    22    3.0   344      5.9   859.8    0.00       0    82.0
 206    1:00   70.2    22    3.4   343      6.7   859.8    0.00       0    81.8
 206    1:10   72.1    19    3.9   347      9.1   859.8    0.00       0    81.7
 206    1:20   72.0    20    3.1   339      4.9   859.8    0.00       0    81.6
 206    1:30   70.8    20    2.6   344      6.9   859.9    0.00       0    81.4
 206    1:40   70.5    21    1.6   349      3.4   859.8    0.00       0    81.3
 206    1:50   70.2    22    1.5   348      4.2   859.9    0.00       0    81.2
 206    2:00   69.3    24    1.0   344      2.9   859.9    0.00       0    81.1
 206    2:10   68.8    24    1.2   301      2.1   859.8    0.00       0    81.1
 206    2:20   68.1    24    1.4   327      3.5   859.8    0.00       0    81.0
 206    2:30   67.3    24    1.7   314      3.9   860.0    0.00       0    80.8
 206    2:40   66.8    25    0.6   274      2.0   860.0    0.00       0    80.8
 206    2:50   66.0    25    0.4   172      1.5   860.1    0.00       0    80.6
 206    3:00   65.7    27    0.7   120      3.3   860.2    0.00       0    80.7
 206    3:10   65.0    32    0.1    97      0.9   860.2    0.00       0    80.5
 206    3:20   65.0    28    0.5   136      1.9   860.2    0.00       0    80.7

Return to Delta, Utah graphs page.


Western Regional Climate Center,wrcc@dri.edu